Sparta, Michigan
Current Conditions -  °F | °C
As of 9:53 AM on Friday 19 Dec 2014 (Local Time) from KGRR Reporting Station
Broken Clouds Broken Clouds  
Wind Chill: 20°   Ceiling: 1900
Heat Index: 27°   Visibility: 10mi
Dew Point: 19°   Wind: 6mph
Humidity: 72%   Direction: 50°NE
Pressure: 30.28"   Gusts: NA
Location:  43.16°N, 85.71°W
Report Text: KGRR 191453Z 05005KT 10SM BKN019 BKN150 M03/M07 A3028 RMK AO2 SLP263 T10281072 51012
Loading
Personal Weather Stations






























Interactive Weather Map New forecast layout! Learn more

10-Day Weather Forecast

Advertisements
Track Severe Weather on mobile